Terminal Aerodrome Forecast
Issued by NWS Newport/Morehead City, NC

Home | Current Version | Previous Version | Graphics & Text | Print | Product List | Glossary On
Versions: 1 2 3 4 5 6 7 8 9 10 11 12 13 14
000
FTUS42 KMHX 270500
TAFEWN
TAF
KEWN 270534Z 2706/2806 33012G20KT P6SM OVC015
     FM271200 33010G18KT P6SM SCT015 OVC025
     FM272000 33010G16KT P6SM OVC035
     FM280300 34005KT P6SM SCT040=

USA.gov is the U.S. government's official web portal to all federal, state and local government web resources and services.